Time;durP1;ratioP1;P1;durP2;ratioP2;P2;SDS_P1;SDS_P2;PMS_P1;PMS_P2;Temp;Humidity;BMP_temperature;BMP_pressure;BME280_temperature;BME280_humidity;BME280_pressure;Samples;Min_cycle;Max_cycle;Signal;HPM_P1;HPM_P2
2023/05/10 00:01:00;;;;;;;13.90;7.10;;;;;;;;;;106861;1275;22520;-82
2023/05/10 00:03:34;;;;;;;14.30;7.20;;;;;;;;;;106860;1276;23348;-81
2023/05/10 00:06:01;;;;;;;15.60;7.20;;;;;;;;;;106841;1268;24203;-77
2023/05/10 00:08:28;;;;;;;15.50;7.00;;;;;;;;;;106867;1277;25326;-79
2023/05/10 00:10:58;;;;;;;12.10;6.70;;;;;;;;;;106828;1277;22523;-77
2023/05/10 00:13:28;;;;;;;14.00;6.90;;;;;;;;;;106842;1260;22731;-82
2023/05/10 00:16:04;;;;;;;14.30;7.20;;;;;;;;;;106869;1275;22752;-76
2023/05/10 00:18:31;;;;;;;13.00;6.40;;;;;;;;;;106917;1275;22479;-76
2023/05/10 00:21:00;;;;;;;13.60;6.60;;;;;;;;;;106886;1275;23876;-78
2023/05/10 00:23:27;;;;;;;13.20;6.80;;;;;;;;;;106863;1258;24263;-81
2023/05/10 00:26:14;;;;;;;13.20;6.70;;;;;;;;;;106858;1277;22760;-77
2023/05/10 00:28:52;;;;;;;14.00;6.80;;;;;;;;;;106844;1277;22649;-80
2023/05/10 00:31:39;;;;;;;13.50;6.30;;;;;;;;;;106875;1275;22734;-80
2023/05/10 00:34:06;;;;;;;13.10;5.90;;;;;;;;;;107014;1256;24231;-79
2023/05/10 00:36:42;;;;;;;14.20;6.10;;;;;;;;;;107025;1252;22629;-83
2023/05/10 00:39:29;;;;;;;11.80;5.80;;;;;;;;;;106956;1275;22535;-79
2023/05/10 00:41:56;;;;;;;12.30;6.50;;;;;;;;;;106965;1275;22520;-75
2023/05/10 00:44:23;;;;;;;13.60;6.00;;;;;;;;;;106854;1259;23225;-75
2023/05/10 00:46:53;;;;;;;12.10;6.30;;;;;;;;;;106848;1277;24266;-79
2023/05/10 00:49:20;;;;;;;12.40;6.90;;;;;;;;;;106863;1275;22614;-81
2023/05/10 00:52:01;;;;;;;13.80;6.10;;;;;;;;;;106822;1277;24242;-76
2023/05/10 00:54:28;;;;;;;13.90;6.30;;;;;;;;;;106999;1257;22540;-81
2023/05/10 00:56:58;;;;;;;14.10;6.30;;;;;;;;;;106981;1275;25319;-75
2023/05/10 00:59:29;;;;;;;15.40;6.40;;;;;;;;;;106874;1275;22573;-82
2023/05/10 01:01:57;;;;;;;13.60;6.00;;;;;;;;;;106959;1275;24339;-77
2023/05/10 01:04:33;;;;;;;12.30;5.90;;;;;;;;;;106880;1259;22582;-77
2023/05/10 01:07:22;;;;;;;;;;;;;;;;;;;;;
2023/05/10 01:09:51;;;;;;;12.70;5.90;;;;;;;;;;106889;1277;23886;-81
2023/05/10 01:12:38;;;;;;;15.00;5.70;;;;;;;;;;106894;1277;25272;-85
2023/05/10 01:15:06;;;;;;;12.50;5.50;;;;;;;;;;106991;1275;22565;-77
2023/05/10 01:17:38;;;;;;;12.20;6.20;;;;;;;;;;107134;1275;24355;-81
2023/05/10 01:20:06;;;;;;;15.00;6.00;;;;;;;;;;106975;1275;25204;-78
2023/05/10 01:22:35;;;;;;;15.10;6.20;;;;;;;;;;107022;1275;22565;-80
2023/05/10 01:25:11;;;;;;;15.20;5.50;;;;;;;;;;106835;1259;24435;-80
2023/05/10 01:27:57;;;;;;;11.00;5.50;;;;;;;;;;106867;1277;25318;-79
2023/05/10 01:30:46;;;;;;;11.60;5.30;;;;;;;;;;106865;1277;24368;-78
2023/05/10 01:33:23;;;;;;;12.10;5.10;;;;;;;;;;106850;1277;22522;-75
2023/05/10 01:36:02;;;;;;;9.40;4.50;;;;;;;;;;107023;1256;24187;-75
2023/05/10 01:38:52;;;;;;;10.80;4.90;;;;;;;;;;106883;1275;26545;-80
2023/05/10 01:41:45;;;;;;;9.30;4.50;;;;;;;;;;107032;1275;25255;-81
2023/05/10 01:44:24;;;;;;;9.80;4.30;;;;;;;;;;107047;1254;24232;-76
2023/05/10 01:47:22;;;;;;;8.50;3.90;;;;;;;;;;106929;1276;22526;-80
2023/05/10 01:49:51;;;;;;;9.50;4.20;;;;;;;;;;106899;1276;24836;-78
2023/05/10 01:52:32;;;;;;;8.00;3.70;;;;;;;;;;106875;1276;22780;-79
2023/05/10 01:55:33;;;;;;;8.90;4.00;;;;;;;;;;106877;1256;22647;-76
2023/05/10 01:58:09;;;;;;;9.30;3.80;;;;;;;;;;106345;1284;25322;-77
2023/05/10 02:00:55;;;;;;;8.10;3.70;;;;;;;;;;106376;1284;22581;-79
2023/05/10 02:03:26;;;;;;;9.10;3.50;;;;;;;;;;106393;1284;22518;-82
2023/05/10 02:06:02;;;;;;;8.10;3.50;;;;;;;;;;106388;1284;22530;-76
2023/05/10 02:08:30;;;;;;;9.10;3.70;;;;;;;;;;106383;1284;22550;-81
2023/05/10 02:10:58;;;;;;;8.20;3.50;;;;;;;;;;106375;1284;25468;-79
2023/05/10 02:13:29;;;;;;;7.60;3.50;;;;;;;;;;106351;1284;24229;-80
2023/05/10 02:16:20;;;;;;;8.00;3.50;;;;;;;;;;106354;1265;25551;-79
2023/05/10 02:19:18;;;;;;;;;;;;;;;;;;;;;
2023/05/10 02:22:00;;;;;;;7.20;2.80;;;;;;;;;;106382;1284;24478;-82
2023/05/10 02:24:48;;;;;;;7.00;2.80;;;;;;;;;;106386;1284;22542;-79
2023/05/10 02:27:29;;;;;;;;;;;;;;;;;;;;;
2023/05/10 02:30:00;;;;;;;7.90;3.00;;;;;;;;;;106391;1280;24183;-80
2023/05/10 02:32:47;;;;;;;7.40;3.00;;;;;;;;;;106378;1284;22527;-79
2023/05/10 02:35:16;;;;;;;7.50;3.00;;;;;;;;;;107003;1275;25271;-76
2023/05/10 02:37:44;;;;;;;8.00;3.20;;;;;;;;;;106862;1268;24374;-76
2023/05/10 02:40:14;;;;;;;8.40;3.30;;;;;;;;;;106879;1276;22520;-83
2023/05/10 02:42:52;;;;;;;7.10;3.20;;;;;;;;;;106963;1276;22627;-79
2023/05/10 02:45:26;;;;;;;7.40;3.30;;;;;;;;;;106882;1276;22576;-75
2023/05/10 02:47:55;;;;;;;7.60;2.70;;;;;;;;;;107060;1275;22535;-75
2023/05/10 02:50:28;;;;;;;8.30;3.00;;;;;;;;;;106902;1275;22532;-76
2023/05/10 02:52:59;;;;;;;8.30;3.30;;;;;;;;;;107074;1275;22513;-77
2023/05/10 02:55:28;;;;;;;7.90;3.10;;;;;;;;;;106987;1275;24212;-78
2023/05/10 02:57:58;;;;;;;7.50;3.30;;;;;;;;;;106867;1275;25323;-76
2023/05/10 03:00:25;;;;;;;8.80;3.80;;;;;;;;;;106894;1275;25461;-77
2023/05/10 03:02:55;;;;;;;8.30;3.30;;;;;;;;;;107071;1275;22520;-77
2023/05/10 03:05:22;;;;;;;8.60;3.60;;;;;;;;;;106876;1275;22525;-76
2023/05/10 03:08:18;;;;;;;8.40;3.50;;;;;;;;;;107066;1259;25214;-80
2023/05/10 03:10:55;;;;;;;8.50;3.60;;;;;;;;;;106767;1276;24188;-79
2023/05/10 03:13:48;;;;;;;7.90;3.40;;;;;;;;;;107049;1276;22547;-76
2023/05/10 03:16:27;;;;;;;8.00;3.30;;;;;;;;;;106880;1275;25213;-80
2023/05/10 03:19:01;;;;;;;10.80;3.20;;;;;;;;;;106875;1275;23179;-79
2023/05/10 03:21:29;;;;;;;8.20;3.50;;;;;;;;;;103350;1275;5098697;-75
2023/05/10 03:24:07;;;;;;;10.70;3.40;;;;;;;;;;107152;1275;22517;-79
2023/05/10 03:26:38;;;;;;;8.10;3.40;;;;;;;;;;106860;1254;25281;-76
2023/05/10 03:29:15;;;;;;;7.10;2.90;;;;;;;;;;106865;1277;25474;-76
2023/05/10 03:31:42;;;;;;;8.70;3.10;;;;;;;;;;106845;1277;22821;-78
2023/05/10 03:34:11;;;;;;;6.80;3.00;;;;;;;;;;106841;1277;25228;-77
2023/05/10 03:37:00;;;;;;;9.60;3.70;;;;;;;;;;106863;1253;25268;-79
2023/05/10 03:39:29;;;;;;;8.10;3.20;;;;;;;;;;106913;1275;22602;-77
2023/05/10 03:42:18;;;;;;;8.60;3.40;;;;;;;;;;106870;1275;25459;-79
2023/05/10 03:44:49;;;;;;;9.10;3.60;;;;;;;;;;106918;1275;23295;-79
2023/05/10 03:47:18;;;;;;;35.10;4.90;;;;;;;;;;107033;1267;22483;-79
2023/05/10 03:49:48;;;;;;;24.30;4.20;;;;;;;;;;106920;1276;22621;-78
2023/05/10 03:52:35;;;;;;;13.20;4.00;;;;;;;;;;106957;1276;25305;-77
2023/05/10 03:55:03;;;;;;;8.70;3.40;;;;;;;;;;107015;1276;22528;-78
2023/05/10 03:57:49;;;;;;;13.00;3.90;;;;;;;;;;107006;1257;25389;-79
2023/05/10 04:00:16;;;;;;;12.50;3.90;;;;;;;;;;106898;1275;22517;-79
2023/05/10 04:02:45;;;;;;;10.40;3.80;;;;;;;;;;107030;1275;22554;-75
2023/05/10 04:05:19;;;;;;;15.00;4.10;;;;;;;;;;107063;1275;25340;-77
2023/05/10 04:07:49;;;;;;;12.10;3.90;;;;;;;;;;107062;1275;22629;-79
2023/05/10 04:10:18;;;;;;;11.50;4.00;;;;;;;;;;106868;1276;25376;-75
2023/05/10 04:12:45;;;;;;;10.80;4.00;;;;;;;;;;106982;1276;25182;-78
2023/05/10 04:15:12;;;;;;;13.60;4.30;;;;;;;;;;106986;1276;24357;-75
2023/05/10 04:17:42;;;;;;;9.70;3.90;;;;;;;;;;106873;1253;22643;-76
2023/05/10 04:20:12;;;;;;;11.50;4.00;;;;;;;;;;107063;1275;24346;-80
2023/05/10 04:22:42;;;;;;;11.00;4.10;;;;;;;;;;107063;1275;24109;-79
2023/05/10 04:25:09;;;;;;;8.00;3.40;;;;;;;;;;107085;1275;22646;-78
2023/05/10 04:27:38;;;;;;;11.00;3.80;;;;;;;;;;107041;1253;22520;-80
2023/05/10 04:30:06;;;;;;;8.20;3.50;;;;;;;;;;106861;1276;22527;-78
2023/05/10 04:32:33;;;;;;;9.20;3.40;;;;;;;;;;106896;1276;22568;-80
2023/05/10 04:35:00;;;;;;;8.20;3.30;;;;;;;;;;106884;1276;22524;-81
2023/05/10 04:37:27;;;;;;;8.60;3.10;;;;;;;;;;106859;1276;24253;-79
2023/05/10 04:39:56;;;;;;;8.70;3.00;;;;;;;;;;106874;1268;22573;-76
2023/05/10 04:42:33;;;;;;;8.40;3.00;;;;;;;;;;106815;1275;25328;-75
2023/05/10 04:45:09;;;;;;;8.40;3.30;;;;;;;;;;107030;1275;22554;-80
2023/05/10 04:47:38;;;;;;;9.10;3.30;;;;;;;;;;107016;1275;25403;-78
2023/05/10 04:50:09;;;;;;;8.80;3.20;;;;;;;;;;106804;1267;22523;-83
2023/05/10 04:52:38;;;;;;;9.30;3.50;;;;;;;;;;106843;1277;24063;-78
2023/05/10 04:55:09;;;;;;;8.20;3.80;;;;;;;;;;106846;1277;24218;-78
2023/05/10 04:57:36;;;;;;;9.30;3.70;;;;;;;;;;106905;1277;22627;-79
2023/05/10 05:00:10;;;;;;;9.70;3.80;;;;;;;;;;106885;1254;24267;-75
2023/05/10 05:02:44;;;;;;;9.60;3.90;;;;;;;;;;106913;1275;25510;-81
2023/05/10 05:05:12;;;;;;;10.70;3.60;;;;;;;;;;107053;1275;22578;-83
2023/05/10 05:07:38;;;;;;;8.10;3.20;;;;;;;;;;107089;1275;25325;-79
2023/05/10 05:10:06;;;;;;;7.40;3.10;;;;;;;;;;106969;1256;22589;-79
2023/05/10 05:12:33;;;;;;;9.00;3.70;;;;;;;;;;107035;1276;22659;-79
2023/05/10 05:15:00;;;;;;;9.00;3.90;;;;;;;;;;106885;1263;24170;-81
2023/05/10 05:17:38;;;;;;;8.00;3.40;;;;;;;;;;106997;1276;24370;-80
2023/05/10 05:20:05;;;;;;;8.00;3.10;;;;;;;;;;107024;1275;22552;-76
2023/05/10 05:22:32;;;;;;;9.20;3.60;;;;;;;;;;107108;1275;25460;-79
2023/05/10 05:24:58;;;;;;;10.50;4.00;;;;;;;;;;107078;1275;22524;-77
2023/05/10 05:27:27;;;;;;;9.80;3.60;;;;;;;;;;106991;1275;24219;-82
2023/05/10 05:30:04;;;;;;;7.80;3.00;;;;;;;;;;107021;1257;25220;-76
2023/05/10 05:32:30;;;;;;;8.70;3.60;;;;;;;;;;106906;1276;23015;-81
2023/05/10 05:34:57;;;;;;;8.30;3.50;;;;;;;;;;106878;1276;24364;-84
2023/05/10 05:37:24;;;;;;;8.20;3.30;;;;;;;;;;106944;1276;22537;-78
2023/05/10 05:39:51;;;;;;;9.10;3.70;;;;;;;;;;106812;1260;23874;-78
2023/05/10 05:42:18;;;;;;;8.40;3.60;;;;;;;;;;106852;1275;24188;-94
2023/05/10 05:44:48;;;;;;;8.10;3.20;;;;;;;;;;106861;1275;24086;-76
2023/05/10 05:47:17;;;;;;;10.40;3.50;;;;;;;;;;106962;1275;23867;-78
2023/05/10 05:49:45;;;;;;;10.60;3.60;;;;;;;;;;107014;1267;22520;-76
2023/05/10 05:52:12;;;;;;;9.00;3.20;;;;;;;;;;106965;1276;22488;-81
2023/05/10 05:54:39;;;;;;;7.50;3.10;;;;;;;;;;106847;1276;24672;-79
2023/05/10 05:57:07;;;;;;;13.20;3.00;;;;;;;;;;106918;1270;25241;-79
2023/05/10 05:59:34;;;;;;;8.50;3.30;;;;;;;;;;106796;1254;22649;-76
2023/05/10 06:02:01;;;;;;;7.30;3.00;;;;;;;;;;106844;1277;25346;-81
2023/05/10 06:04:27;;;;;;;8.60;3.60;;;;;;;;;;106846;1277;22530;-80
2023/05/10 06:06:57;;;;;;;9.50;3.40;;;;;;;;;;106847;1277;25545;-77
2023/05/10 06:09:24;;;;;;;8.80;3.10;;;;;;;;;;106874;1276;22524;-75
2023/05/10 06:11:51;;;;;;;8.00;3.40;;;;;;;;;;106669;1276;22524;-80
2023/05/10 06:14:20;;;;;;;7.00;3.10;;;;;;;;;;106884;1276;22512;-80
2023/05/10 06:16:46;;;;;;;10.30;3.40;;;;;;;;;;106874;1276;22509;-79
2023/05/10 06:19:13;;;;;;;6.90;3.20;;;;;;;;;;106826;1276;24185;-78
2023/05/10 06:21:40;;;;;;;9.00;3.30;;;;;;;;;;106811;1270;22518;-82
2023/05/10 06:24:27;;;;;;;6.90;2.80;;;;;;;;;;107020;1276;25778;-76
2023/05/10 06:26:54;;;;;;;8.50;2.50;;;;;;;;;;106868;1276;22745;-76
2023/05/10 06:29:23;;;;;;;7.20;3.20;;;;;;;;;;106989;1276;22527;-84
2023/05/10 06:31:50;;;;;;;6.60;3.00;;;;;;;;;;107019;1266;22539;-82
2023/05/10 06:34:16;;;;;;;7.70;2.80;;;;;;;;;;106900;1276;25350;-78
2023/05/10 06:36:43;;;;;;;12.10;2.80;;;;;;;;;;106863;1276;22569;-83
2023/05/10 06:39:11;;;;;;;7.80;3.20;;;;;;;;;;106860;1276;24197;-83
2023/05/10 06:41:38;;;;;;;6.70;3.10;;;;;;;;;;106818;1270;22692;-77
2023/05/10 06:44:05;;;;;;;7.00;2.70;;;;;;;;;;106897;1276;24196;-75
2023/05/10 06:46:32;;;;;;;6.20;2.60;;;;;;;;;;106954;1276;22652;-77
2023/05/10 06:48:58;;;;;;;8.30;3.00;;;;;;;;;;106846;1276;22542;-81
2023/05/10 06:51:25;;;;;;;6.70;2.30;;;;;;;;;;106861;1276;24259;-83
2023/05/10 06:53:55;;;;;;;7.10;2.70;;;;;;;;;;106684;1277;23258;-80
2023/05/10 06:56:21;;;;;;;5.40;2.40;;;;;;;;;;106556;1277;22528;-78
2023/05/10 06:58:48;;;;;;;8.30;2.40;;;;;;;;;;106833;1277;25281;-75
2023/05/10 07:01:15;;;;;;;6.20;2.80;;;;;;;;;;106817;1276;22771;-76
2023/05/10 07:03:42;;;;;;;6.90;3.00;;;;;;;;;;106654;1255;22533;-82
2023/05/10 07:06:09;;;;;;;5.80;2.40;;;;;;;;;;106735;1254;22500;-77
2023/05/10 07:08:35;;;;;;;8.20;2.80;;;;;;;;;;106834;1276;25335;-76
2023/05/10 07:11:03;;;;;;;6.90;2.60;;;;;;;;;;106860;1254;24092;-79
2023/05/10 07:13:31;;;;;;;7.40;2.50;;;;;;;;;;106864;1276;22527;-84
2023/05/10 07:15:58;;;;;;;9.20;3.50;;;;;;;;;;106836;1276;24249;-81
2023/05/10 07:18:26;;;;;;;7.00;2.90;;;;;;;;;;106866;1276;22519;-77
2023/05/10 07:20:52;;;;;;;7.80;2.30;;;;;;;;;;106951;1276;23867;-76
2023/05/10 07:23:19;;;;;;;11.00;2.80;;;;;;;;;;106851;1260;23002;-80
2023/05/10 07:26:07;;;;;;;7.70;2.50;;;;;;;;;;106814;1276;22535;-83
2023/05/10 07:28:33;;;;;;;6.90;2.70;;;;;;;;;;106861;1276;25319;-79
2023/05/10 07:31:00;;;;;;;8.10;2.60;;;;;;;;;;106848;1276;25232;-77
2023/05/10 07:33:27;;;;;;;6.90;2.40;;;;;;;;;;106852;1270;22599;-79
2023/05/10 07:35:54;;;;;;;6.30;3.00;;;;;;;;;;106851;1277;24225;-78
2023/05/10 07:38:21;;;;;;;9.40;2.80;;;;;;;;;;106902;1277;22600;-77
2023/05/10 07:40:54;;;;;;;7.40;2.70;;;;;;;;;;106839;1277;22630;-76
2023/05/10 07:43:23;;;;;;;6.30;2.50;;;;;;;;;;106824;1269;22541;-81
2023/05/10 07:45:50;;;;;;;5.40;2.40;;;;;;;;;;106970;1276;22540;-83
2023/05/10 07:48:16;;;;;;;9.30;2.50;;;;;;;;;;106863;1276;22756;-78
2023/05/10 07:50:43;;;;;;;7.90;2.50;;;;;;;;;;106827;1276;22536;-83
2023/05/10 07:53:10;;;;;;;8.70;2.30;;;;;;;;;;106875;1276;22920;-81
2023/05/10 07:55:36;;;;;;;8.30;2.60;;;;;;;;;;106856;1277;23002;-76
2023/05/10 07:58:03;;;;;;;6.70;2.80;;;;;;;;;;106866;1277;22540;-80
2023/05/10 08:00:30;;;;;;;5.40;2.30;;;;;;;;;;106827;1277;22778;-82
2023/05/10 08:02:56;;;;;;;6.40;2.50;;;;;;;;;;106991;1267;25437;-78
2023/05/10 08:05:23;;;;;;;6.90;2.60;;;;;;;;;;106878;1276;23127;-84
2023/05/10 08:07:50;;;;;;;13.00;3.00;;;;;;;;;;107031;1276;22528;-83
2023/05/10 08:10:17;;;;;;;6.00;2.30;;;;;;;;;;106782;1276;22535;-82
2023/05/10 08:12:43;;;;;;;6.30;2.00;;;;;;;;;;106816;1261;22537;-85
2023/05/10 08:15:10;;;;;;;9.50;2.90;;;;;;;;;;106850;1276;22542;-76
2023/05/10 08:17:37;;;;;;;10.00;2.60;;;;;;;;;;106966;1276;22538;-84
2023/05/10 08:20:04;;;;;;;8.50;2.60;;;;;;;;;;106863;1276;24243;-80
2023/05/10 08:22:31;;;;;;;6.80;2.50;;;;;;;;;;106860;1256;25290;-80
2023/05/10 08:24:57;;;;;;;6.10;2.50;;;;;;;;;;106861;1276;22535;-77
2023/05/10 08:27:24;;;;;;;6.50;2.20;;;;;;;;;;106891;1276;24246;-83
2023/05/10 08:29:51;;;;;;;8.10;2.80;;;;;;;;;;106809;1276;25465;-76
2023/05/10 08:32:18;;;;;;;6.20;2.50;;;;;;;;;;106828;1275;24231;-76
2023/05/10 08:34:44;;;;;;;7.90;2.70;;;;;;;;;;106725;1274;24207;-80
2023/05/10 08:37:12;;;;;;;8.00;2.50;;;;;;;;;;106975;1276;22527;-80
2023/05/10 08:39:39;;;;;;;7.20;2.70;;;;;;;;;;106863;1276;22523;-79
2023/05/10 08:42:07;;;;;;;7.30;2.70;;;;;;;;;;106811;1276;25372;-79
2023/05/10 08:44:35;;;;;;;7.90;2.50;;;;;;;;;;106855;1269;25251;-77
2023/05/10 08:47:06;;;;;;;8.30;2.50;;;;;;;;;;106968;1276;25283;-81
2023/05/10 08:49:33;;;;;;;6.50;2.50;;;;;;;;;;106904;1276;25373;-81
2023/05/10 08:52:03;;;;;;;8.40;2.50;;;;;;;;;;106846;1276;22531;-82
2023/05/10 08:54:34;;;;;;;9.10;2.80;;;;;;;;;;106932;1258;24209;-79
2023/05/10 08:57:01;;;;;;;6.50;2.40;;;;;;;;;;107011;1276;25534;-76
2023/05/10 08:59:27;;;;;;;11.30;2.40;;;;;;;;;;106992;1276;25280;-76
2023/05/10 09:01:56;;;;;;;8.00;2.40;;;;;;;;;;106990;1276;25369;-79
2023/05/10 09:04:22;;;;;;;6.30;2.40;;;;;;;;;;106817;1260;22523;-78
2023/05/10 09:06:49;;;;;;;8.80;2.30;;;;;;;;;;106877;1276;25502;-76
2023/05/10 09:09:17;;;;;;;11.00;2.50;;;;;;;;;;106859;1276;25196;-80
2023/05/10 09:11:44;;;;;;;7.80;2.10;;;;;;;;;;106867;1276;22525;-82
2023/05/10 09:14:12;;;;;;;7.90;2.40;;;;;;;;;;106871;1260;25268;-79
2023/05/10 09:16:39;;;;;;;5.10;2.00;;;;;;;;;;106947;1276;24350;-81
2023/05/10 09:19:10;;;;;;;4.90;2.00;;;;;;;;;;106972;1276;25411;-79
2023/05/10 09:21:40;;;;;;;7.50;2.90;;;;;;;;;;110417;1272;22452;-75
2023/05/10 09:24:07;;;;;;;7.30;2.20;;;;;;;;;;110348;1257;22344;-77
2023/05/10 09:26:35;;;;;;;5.90;2.10;;;;;;;;;;110391;1276;22127;-75
2023/05/10 09:29:03;;;;;;;5.10;1.70;;;;;;;;;;110501;1276;22104;-75
2023/05/10 09:31:46;;;;;;;7.90;2.00;;;;;;;;;;110404;1276;22117;-76
2023/05/10 09:34:17;;;;;;;5.10;1.90;;;;;;;;;;110523;1254;22093;-77
2023/05/10 09:37:00;;;;;;;5.40;1.60;;;;;;;;;;110384;1277;23129;-76
2023/05/10 09:39:33;;;;;;;7.10;1.90;;;;;;;;;;110180;1278;22911;-75
2023/05/10 09:42:09;;;;;;;7.20;1.80;;;;;;;;;;110198;1278;22966;-77
2023/05/10 09:44:40;;;;;;;4.80;1.90;;;;;;;;;;110255;1257;22102;-76
2023/05/10 09:47:07;;;;;;;6.80;2.30;;;;;;;;;;110183;1277;22828;-75
2023/05/10 09:49:37;;;;;;;7.70;2.00;;;;;;;;;;110400;1277;22242;-75
2023/05/10 09:52:05;;;;;;;5.30;1.60;;;;;;;;;;110349;1277;22099;-75
2023/05/10 09:54:32;;;;;;;10.60;2.00;;;;;;;;;;110385;1256;22882;-75
2023/05/10 09:57:18;;;;;;;5.60;1.60;;;;;;;;;;110327;1278;22104;-75
2023/05/10 09:59:45;;;;;;;5.70;2.10;;;;;;;;;;110402;1277;22126;-75
2023/05/10 10:02:12;;;;;;;5.30;1.80;;;;;;;;;;110403;1278;22311;-75
2023/05/10 10:04:39;;;;;;;4.80;2.10;;;;;;;;;;110514;1254;22166;-74
2023/05/10 10:07:06;;;;;;;9.30;3.50;;;;;;;;;;110221;1277;22218;-76
2023/05/10 10:09:34;;;;;;;8.30;3.30;;;;;;;;;;110210;1277;22126;-76
2023/05/10 10:12:04;;;;;;;4.90;2.20;;;;;;;;;;110406;1277;22331;-76
2023/05/10 10:14:31;;;;;;;6.40;2.30;;;;;;;;;;110203;1254;22146;-74
2023/05/10 10:17:00;;;;;;;7.30;2.30;;;;;;;;;;110215;1278;22802;-75
2023/05/10 10:19:27;;;;;;;10.00;2.20;;;;;;;;;;110225;1278;22100;-76
2023/05/10 10:21:54;;;;;;;7.20;2.30;;;;;;;;;;110382;1277;22117;-76
2023/05/10 10:24:21;;;;;;;6.80;2.30;;;;;;;;;;110396;1276;22096;-77
2023/05/10 10:26:48;;;;;;;9.80;2.20;;;;;;;;;;110240;1258;22120;-76
2023/05/10 10:29:21;;;;;;;7.50;2.40;;;;;;;;;;110233;1277;22136;-76
2023/05/10 10:31:58;;;;;;;6.80;2.30;;;;;;;;;;110354;1277;22917;-76
2023/05/10 10:34:26;;;;;;;5.30;2.10;;;;;;;;;;110349;1277;22110;-76
2023/05/10 10:36:54;;;;;;;4.90;2.20;;;;;;;;;;110449;1254;22128;-76
2023/05/10 10:39:21;;;;;;;6.70;2.30;;;;;;;;;;110498;1276;22124;-77
2023/05/10 10:41:52;;;;;;;6.60;2.10;;;;;;;;;;110508;1276;22118;-76
2023/05/10 10:44:33;;;;;;;6.50;2.30;;;;;;;;;;110497;1276;22116;-76
2023/05/10 10:47:05;;;;;;;7.40;2.50;;;;;;;;;;110624;1259;22004;-76
2023/05/10 10:49:33;;;;;;;6.30;2.60;;;;;;;;;;110273;1276;22801;-76
2023/05/10 10:52:15;;;;;;;9.40;2.50;;;;;;;;;;110448;1276;22134;-75
2023/05/10 10:54:52;;;;;;;10.60;2.80;;;;;;;;;;110476;1276;22870;-76
2023/05/10 10:57:21;;;;;;;6.70;2.00;;;;;;;;;;110841;1254;22863;-76
2023/05/10 10:59:48;;;;;;;8.50;2.50;;;;;;;;;;110386;1277;22129;-78
2023/05/10 11:02:43;;;;;;;6.00;2.20;;;;;;;;;;110389;1277;22204;-78
2023/05/10 11:05:48;;;;;;;7.10;2.20;;;;;;;;;;110408;1276;22106;-76
2023/05/10 11:08:16;;;;;;;5.40;2.00;;;;;;;;;;110527;1257;22656;-77
2023/05/10 11:11:18;;;;;;;8.90;2.00;;;;;;;;;;110270;1276;22091;-77
2023/05/10 11:13:53;;;;;;;6.20;2.50;;;;;;;;;;110446;1276;22120;-76
2023/05/10 11:16:23;;;;;;;9.30;2.40;;;;;;;;;;110236;1254;22126;-77
2023/05/10 11:18:54;;;;;;;6.60;2.40;;;;;;;;;;110407;1277;22086;-76
2023/05/10 11:21:20;;;;;;;7.80;1.90;;;;;;;;;;110443;1277;22868;-77
2023/05/10 11:23:48;;;;;;;6.50;2.40;;;;;;;;;;110410;1259;22143;-75
2023/05/10 11:26:15;;;;;;;5.70;2.40;;;;;;;;;;110409;1254;22473;-75
2023/05/10 11:28:46;;;;;;;8.80;2.40;;;;;;;;;;110178;1276;22145;-76
2023/05/10 11:31:17;;;;;;;9.40;2.30;;;;;;;;;;110268;1276;22181;-76
2023/05/10 11:33:46;;;;;;;4.50;1.70;;;;;;;;;;110406;1276;22884;-75
2023/05/10 11:36:17;;;;;;;6.50;3.00;;;;;;;;;;110264;1276;22365;-75
2023/05/10 11:38:44;;;;;;;4.20;1.80;;;;;;;;;;110640;1259;22164;-75
2023/05/10 11:41:21;;;;;;;5.60;2.20;;;;;;;;;;110315;1279;22287;-75
2023/05/10 11:43:52;;;;;;;5.20;2.00;;;;;;;;;;110310;1279;22892;-76
2023/05/10 11:46:20;;;;;;;7.60;2.00;;;;;;;;;;110179;1279;22926;-81
2023/05/10 11:48:48;;;;;;;10.10;2.30;;;;;;;;;;110404;1263;22279;-75
2023/05/10 11:51:15;;;;;;;8.30;2.60;;;;;;;;;;110405;1278;22185;-76
2023/05/10 11:53:42;;;;;;;6.30;2.30;;;;;;;;;;110374;1278;22834;-75
2023/05/10 11:56:09;;;;;;;5.50;1.60;;;;;;;;;;110408;1278;22177;-77
2023/05/10 11:58:37;;;;;;;7.10;1.80;;;;;;;;;;110380;1260;21996;-75
2023/05/10 12:01:04;;;;;;;4.40;1.70;;;;;;;;;;110273;1278;22829;-75
2023/05/10 12:03:32;;;;;;;4.90;1.90;;;;;;;;;;110147;1278;22098;-76
2023/05/10 12:05:59;;;;;;;7.30;2.10;;;;;;;;;;110192;1278;22693;-76
2023/05/10 12:08:26;;;;;;;5.60;2.00;;;;;;;;;;110292;1258;22332;-75
2023/05/10 12:10:53;;;;;;;7.20;2.00;;;;;;;;;;110295;1279;22109;-76
2023/05/10 12:13:20;;;;;;;5.30;2.00;;;;;;;;;;110190;1279;22118;-75
2023/05/10 12:15:47;;;;;;;7.60;2.30;;;;;;;;;;110323;1279;22112;-76
2023/05/10 12:18:14;;;;;;;8.40;2.60;;;;;;;;;;110366;1256;22937;-75
2023/05/10 12:20:41;;;;;;;5.60;2.20;;;;;;;;;;110322;1279;22107;-75
2023/05/10 12:23:08;;;;;;;7.50;2.00;;;;;;;;;;110342;1279;22125;-75
2023/05/10 12:25:36;;;;;;;4.00;1.80;;;;;;;;;;110178;1279;22142;-76
2023/05/10 12:28:04;;;;;;;6.50;2.10;;;;;;;;;;110203;1259;22782;-76
2023/05/10 12:30:32;;;;;;;6.40;1.80;;;;;;;;;;110187;1279;22207;-75
2023/05/10 12:33:00;;;;;;;5.20;1.70;;;;;;;;;;110316;1279;22588;-75
2023/05/10 12:35:29;;;;;;;6.80;1.80;;;;;;;;;;110209;1279;22093;-75
2023/05/10 12:37:56;;;;;;;4.70;1.50;;;;;;;;;;110337;1256;22817;-76
2023/05/10 12:40:23;;;;;;;6.50;1.70;;;;;;;;;;110120;1280;22217;-76
2023/05/10 12:42:50;;;;;;;4.00;1.70;;;;;;;;;;110116;1280;22803;-75
2023/05/10 12:45:17;;;;;;;6.00;2.20;;;;;;;;;;110130;1280;22101;-76
2023/05/10 12:47:44;;;;;;;4.30;1.50;;;;;;;;;;110141;1280;22249;-77
2023/05/10 12:50:11;;;;;;;3.90;1.70;;;;;;;;;;110273;1260;22676;-75
2023/05/10 12:52:38;;;;;;;5.10;1.80;;;;;;;;;;110144;1280;22137;-75
2023/05/10 12:55:04;;;;;;;3.40;1.50;;;;;;;;;;110121;1280;22180;-76
2023/05/10 12:57:31;;;;;;;5.20;1.60;;;;;;;;;;110141;1280;22743;-75
2023/05/10 12:59:58;;;;;;;3.10;1.50;;;;;;;;;;110237;1262;22133;-75
2023/05/10 13:02:24;;;;;;;4.20;1.50;;;;;;;;;;110135;1280;22097;-75
2023/05/10 13:04:52;;;;;;;10.80;1.80;;;;;;;;;;110135;1280;22197;-76
2023/05/10 13:07:19;;;;;;;4.70;1.80;;;;;;;;;;110110;1280;22721;-75
2023/05/10 13:09:45;;;;;;;4.40;1.50;;;;;;;;;;110374;1260;22156;-76
2023/05/10 13:12:12;;;;;;;3.80;1.70;;;;;;;;;;110125;1280;22189;-75
2023/05/10 13:14:40;;;;;;;3.40;1.50;;;;;;;;;;110140;1280;22797;-75
2023/05/10 13:17:07;;;;;;;5.40;1.60;;;;;;;;;;110146;1280;22313;-76
2023/05/10 13:19:33;;;;;;;3.80;1.70;;;;;;;;;;110227;1260;21822;-75
2023/05/10 13:22:00;;;;;;;3.50;1.60;;;;;;;;;;110134;1280;22438;-76
2023/05/10 13:24:27;;;;;;;3.40;1.70;;;;;;;;;;110139;1280;22881;-74
2023/05/10 13:26:53;;;;;;;3.80;1.40;;;;;;;;;;110147;1280;22081;-76
2023/05/10 13:29:22;;;;;;;5.50;1.70;;;;;;;;;;110255;1261;22289;-75
2023/05/10 13:31:48;;;;;;;3.50;1.70;;;;;;;;;;110154;1280;22181;-75
2023/05/10 13:34:15;;;;;;;3.90;1.70;;;;;;;;;;110130;1280;22137;-75
2023/05/10 13:36:42;;;;;;;4.90;1.60;;;;;;;;;;110128;1280;22142;-76
2023/05/10 13:39:09;;;;;;;5.80;1.70;;;;;;;;;;110136;1257;22238;-75
2023/05/10 13:41:36;;;;;;;7.70;2.40;;;;;;;;;;110072;1281;22195;-75
2023/05/10 13:44:03;;;;;;;5.10;1.80;;;;;;;;;;110114;1281;22159;-75
2023/05/10 13:46:30;;;;;;;12.20;5.70;;;;;;;;;;110126;1281;22131;-76
2023/05/10 13:48:57;;;;;;;5.90;2.40;;;;;;;;;;110070;1281;22097;-75
2023/05/10 13:51:24;;;;;;;5.50;2.00;;;;;;;;;;110540;1262;22688;-76
2023/05/10 13:53:52;;;;;;;5.50;2.30;;;;;;;;;;110098;1281;22788;-76
2023/05/10 13:56:36;;;;;;;6.60;2.20;;;;;;;;;;110107;1281;22749;-76
2023/05/10 13:59:03;;;;;;;5.80;2.20;;;;;;;;;;110120;1280;23132;-75
2023/05/10 14:01:30;;;;;;;7.60;3.00;;;;;;;;;;110356;1261;22115;-75
2023/05/10 14:03:57;;;;;;;8.00;2.80;;;;;;;;;;110124;1281;22171;-76
2023/05/10 14:06:24;;;;;;;10.50;6.00;;;;;;;;;;110130;1280;22165;-76
2023/05/10 14:08:51;;;;;;;8.70;4.50;;;;;;;;;;110121;1280;22099;-75
2023/05/10 14:11:18;;;;;;;8.10;2.80;;;;;;;;;;110410;1259;22146;-75
2023/05/10 14:13:45;;;;;;;5.00;2.30;;;;;;;;;;110563;1263;22184;-75
2023/05/10 14:16:14;;;;;;;4.80;1.60;;;;;;;;;;110069;1280;22283;-75
2023/05/10 14:18:41;;;;;;;7.50;2.10;;;;;;;;;;110212;1280;22106;-75
2023/05/10 14:21:08;;;;;;;5.10;2.00;;;;;;;;;;110321;1262;22417;-75
2023/05/10 14:23:35;;;;;;;6.80;2.50;;;;;;;;;;110134;1281;22278;-75
2023/05/10 14:26:02;;;;;;;5.90;2.50;;;;;;;;;;110155;1280;23206;-75
2023/05/10 14:28:30;;;;;;;6.90;2.10;;;;;;;;;;110116;1281;22157;-75
2023/05/10 14:30:56;;;;;;;5.00;1.80;;;;;;;;;;110227;1264;21999;-76
2023/05/10 14:33:23;;;;;;;7.90;2.60;;;;;;;;;;110199;1260;22099;-77
2023/05/10 14:35:50;;;;;;;5.30;2.10;;;;;;;;;;110221;1280;22224;-76
2023/05/10 14:38:17;;;;;;;7.70;2.60;;;;;;;;;;110191;1280;22835;-75
2023/05/10 14:40:45;;;;;;;6.60;2.20;;;;;;;;;;110169;1259;22127;-75
2023/05/10 14:43:13;;;;;;;14.00;7.60;;;;;;;;;;110057;1280;22121;-75
2023/05/10 14:45:41;;;;;;;11.00;5.50;;;;;;;;;;110135;1280;22246;-75
2023/05/10 14:48:15;;;;;;;8.40;2.60;;;;;;;;;;110140;1280;22127;-75
2023/05/10 14:50:42;;;;;;;5.80;2.60;;;;;;;;;;110127;1257;23012;-75